sensor_id;sensor_type;location;lat;lon;timestamp;P1;durP1;ratioP1;P2;durP2;ratioP2
75429;SDS011;64127;51.488;5.462;2023-07-31T00:02:18;16.87;;;7.10;;
75429;SDS011;64127;51.488;5.462;2023-07-31T00:04:50;20.03;;;8.07;;
75429;SDS011;64127;51.488;5.462;2023-07-31T00:07:22;17.80;;;7.70;;
75429;SDS011;64127;51.488;5.462;2023-07-31T00:09:54;13.30;;;7.23;;
75429;SDS011;64127;51.488;5.462;2023-07-31T00:12:27;18.73;;;7.67;;
75429;SDS011;64127;51.488;5.462;2023-07-31T00:14:59;15.73;;;7.40;;
75429;SDS011;64127;51.488;5.462;2023-07-31T00:17:32;16.33;;;7.30;;
75429;SDS011;64127;51.488;5.462;2023-07-31T00:20:04;14.20;;;7.10;;
75429;SDS011;64127;51.488;5.462;2023-07-31T00:22:37;15.60;;;7.40;;
75429;SDS011;64127;51.488;5.462;2023-07-31T00:25:09;15.13;;;7.23;;
75429;SDS011;64127;51.488;5.462;2023-07-31T00:27:41;15.57;;;7.70;;
75429;SDS011;64127;51.488;5.462;2023-07-31T00:30:15;15.60;;;6.80;;
75429;SDS011;64127;51.488;5.462;2023-07-31T00:32:47;18.07;;;7.40;;
75429;SDS011;64127;51.488;5.462;2023-07-31T00:35:20;12.83;;;7.07;;
75429;SDS011;64127;51.488;5.462;2023-07-31T00:37:52;17.33;;;7.20;;
75429;SDS011;64127;51.488;5.462;2023-07-31T00:40:24;13.30;;;6.70;;
75429;SDS011;64127;51.488;5.462;2023-07-31T00:42:56;13.60;;;6.30;;
75429;SDS011;64127;51.488;5.462;2023-07-31T00:45:29;13.43;;;6.40;;
75429;SDS011;64127;51.488;5.462;2023-07-31T00:48:03;14.87;;;6.87;;
75429;SDS011;64127;51.488;5.462;2023-07-31T00:50:37;15.60;;;6.67;;
75429;SDS011;64127;51.488;5.462;2023-07-31T00:53:11;15.17;;;6.47;;
75429;SDS011;64127;51.488;5.462;2023-07-31T00:55:43;12.93;;;6.10;;
75429;SDS011;64127;51.488;5.462;2023-07-31T00:58:16;14.20;;;6.63;;
75429;SDS011;64127;51.488;5.462;2023-07-31T01:00:48;12.53;;;6.07;;
75429;SDS011;64127;51.488;5.462;2023-07-31T01:03:21;15.43;;;6.07;;
75429;SDS011;64127;51.488;5.462;2023-07-31T01:08:54;13.03;;;5.70;;
75429;SDS011;64127;51.488;5.462;2023-07-31T01:12:09;14.37;;;5.93;;
75429;SDS011;64127;51.488;5.462;2023-07-31T01:17:35;13.67;;;6.10;;
75429;SDS011;64127;51.488;5.462;2023-07-31T01:28:59;14.33;;;5.70;;
75429;SDS011;64127;51.488;5.462;2023-07-31T01:31:47;13.47;;;6.10;;
75429;SDS011;64127;51.488;5.462;2023-07-31T01:34:21;11.33;;;6.07;;
75429;SDS011;64127;51.488;5.462;2023-07-31T01:36:55;14.13;;;6.00;;
75429;SDS011;64127;51.488;5.462;2023-07-31T01:39:29;10.57;;;5.80;;
75429;SDS011;64127;51.488;5.462;2023-07-31T01:42:01;11.23;;;5.83;;
75429;SDS011;64127;51.488;5.462;2023-07-31T01:44:33;11.00;;;6.00;;
75429;SDS011;64127;51.488;5.462;2023-07-31T01:47:05;13.27;;;6.27;;
75429;SDS011;64127;51.488;5.462;2023-07-31T01:49:37;10.07;;;5.57;;
75429;SDS011;64127;51.488;5.462;2023-07-31T01:52:09;15.07;;;6.70;;
75429;SDS011;64127;51.488;5.462;2023-07-31T01:54:41;9.97;;;6.20;;
75429;SDS011;64127;51.488;5.462;2023-07-31T01:57:13;14.13;;;6.87;;
75429;SDS011;64127;51.488;5.462;2023-07-31T01:59:45;10.57;;;5.80;;
75429;SDS011;64127;51.488;5.462;2023-07-31T02:02:17;11.53;;;5.90;;
75429;SDS011;64127;51.488;5.462;2023-07-31T02:04:49;12.13;;;5.93;;
75429;SDS011;64127;51.488;5.462;2023-07-31T02:07:21;14.97;;;6.50;;
75429;SDS011;64127;51.488;5.462;2023-07-31T02:09:53;11.43;;;6.27;;
75429;SDS011;64127;51.488;5.462;2023-07-31T02:12:25;12.10;;;6.10;;
75429;SDS011;64127;51.488;5.462;2023-07-31T02:14:57;13.13;;;6.43;;
75429;SDS011;64127;51.488;5.462;2023-07-31T02:17:29;12.37;;;6.37;;
75429;SDS011;64127;51.488;5.462;2023-07-31T02:20:01;12.40;;;6.30;;
75429;SDS011;64127;51.488;5.462;2023-07-31T02:22:34;12.67;;;6.10;;
75429;SDS011;64127;51.488;5.462;2023-07-31T02:25:06;11.90;;;6.13;;
75429;SDS011;64127;51.488;5.462;2023-07-31T02:27:38;14.03;;;6.40;;
75429;SDS011;64127;51.488;5.462;2023-07-31T02:30:11;11.83;;;6.37;;
75429;SDS011;64127;51.488;5.462;2023-07-31T02:32:43;15.50;;;6.80;;
75429;SDS011;64127;51.488;5.462;2023-07-31T02:35:15;12.73;;;6.27;;
75429;SDS011;64127;51.488;5.462;2023-07-31T02:37:47;11.83;;;6.07;;
75429;SDS011;64127;51.488;5.462;2023-07-31T02:40:19;12.17;;;6.40;;
75429;SDS011;64127;51.488;5.462;2023-07-31T02:42:51;11.43;;;5.70;;
75429;SDS011;64127;51.488;5.462;2023-07-31T02:45:23;12.17;;;6.20;;
75429;SDS011;64127;51.488;5.462;2023-07-31T02:47:55;12.33;;;5.97;;
75429;SDS011;64127;51.488;5.462;2023-07-31T02:50:27;13.30;;;6.77;;
75429;SDS011;64127;51.488;5.462;2023-07-31T02:53:00;11.77;;;6.43;;
75429;SDS011;64127;51.488;5.462;2023-07-31T02:55:32;15.00;;;6.87;;
75429;SDS011;64127;51.488;5.462;2023-07-31T02:58:04;11.27;;;6.23;;
75429;SDS011;64127;51.488;5.462;2023-07-31T03:00:36;12.90;;;6.10;;
75429;SDS011;64127;51.488;5.462;2023-07-31T03:03:14;11.23;;;6.53;;
75429;SDS011;64127;51.488;5.462;2023-07-31T03:05:47;11.37;;;6.37;;
75429;SDS011;64127;51.488;5.462;2023-07-31T03:08:19;14.87;;;6.63;;
75429;SDS011;64127;51.488;5.462;2023-07-31T03:10:51;13.37;;;6.67;;
75429;SDS011;64127;51.488;5.462;2023-07-31T03:13:23;11.80;;;6.00;;
75429;SDS011;64127;51.488;5.462;2023-07-31T03:15:55;12.93;;;6.30;;
75429;SDS011;64127;51.488;5.462;2023-07-31T03:18:27;12.67;;;6.03;;
75429;SDS011;64127;51.488;5.462;2023-07-31T03:20:59;15.60;;;6.30;;
75429;SDS011;64127;51.488;5.462;2023-07-31T03:23:31;10.23;;;5.87;;
75429;SDS011;64127;51.488;5.462;2023-07-31T03:26:05;16.63;;;7.07;;
75429;SDS011;64127;51.488;5.462;2023-07-31T03:28:39;12.50;;;6.00;;
75429;SDS011;64127;51.488;5.462;2023-07-31T03:31:11;16.20;;;6.23;;
75429;SDS011;64127;51.488;5.462;2023-07-31T03:33:43;14.03;;;6.53;;
75429;SDS011;64127;51.488;5.462;2023-07-31T03:36:15;13.77;;;7.00;;
75429;SDS011;64127;51.488;5.462;2023-07-31T03:38:47;13.30;;;5.63;;
75429;SDS011;64127;51.488;5.462;2023-07-31T03:41:19;10.67;;;5.53;;
75429;SDS011;64127;51.488;5.462;2023-07-31T03:43:52;13.90;;;5.70;;
75429;SDS011;64127;51.488;5.462;2023-07-31T03:46:24;15.87;;;5.87;;
75429;SDS011;64127;51.488;5.462;2023-07-31T03:48:56;12.77;;;5.47;;
75429;SDS011;64127;51.488;5.462;2023-07-31T03:51:28;10.70;;;5.70;;
75429;SDS011;64127;51.488;5.462;2023-07-31T03:54:00;10.53;;;5.87;;
75429;SDS011;64127;51.488;5.462;2023-07-31T03:56:33;12.87;;;5.90;;
75429;SDS011;64127;51.488;5.462;2023-07-31T03:59:06;10.40;;;5.43;;
75429;SDS011;64127;51.488;5.462;2023-07-31T04:01:38;11.40;;;5.77;;
75429;SDS011;64127;51.488;5.462;2023-07-31T04:04:10;11.77;;;5.80;;
75429;SDS011;64127;51.488;5.462;2023-07-31T04:06:42;10.50;;;5.47;;
75429;SDS011;64127;51.488;5.462;2023-07-31T04:09:14;13.90;;;6.00;;
75429;SDS011;64127;51.488;5.462;2023-07-31T04:11:46;13.50;;;6.13;;
75429;SDS011;64127;51.488;5.462;2023-07-31T04:14:18;11.87;;;5.87;;
75429;SDS011;64127;51.488;5.462;2023-07-31T04:16:50;11.23;;;5.67;;
75429;SDS011;64127;51.488;5.462;2023-07-31T04:19:24;12.98;;;6.32;;
75429;SDS011;64127;51.488;5.462;2023-07-31T04:21:56;10.60;;;5.67;;
75429;SDS011;64127;51.488;5.462;2023-07-31T04:24:28;12.83;;;5.40;;
75429;SDS011;64127;51.488;5.462;2023-07-31T04:27:00;12.50;;;5.57;;
75429;SDS011;64127;51.488;5.462;2023-07-31T04:29:32;11.87;;;5.63;;
75429;SDS011;64127;51.488;5.462;2023-07-31T04:32:04;12.07;;;5.80;;
75429;SDS011;64127;51.488;5.462;2023-07-31T04:34:36;9.97;;;5.80;;
75429;SDS011;64127;51.488;5.462;2023-07-31T04:37:08;9.90;;;5.70;;
75429;SDS011;64127;51.488;5.462;2023-07-31T04:39:40;11.73;;;5.60;;
75429;SDS011;64127;51.488;5.462;2023-07-31T04:42:12;11.27;;;5.70;;
75429;SDS011;64127;51.488;5.462;2023-07-31T04:44:44;13.40;;;6.30;;
75429;SDS011;64127;51.488;5.462;2023-07-31T04:47:16;11.23;;;5.70;;
75429;SDS011;64127;51.488;5.462;2023-07-31T04:49:48;11.07;;;6.10;;
75429;SDS011;64127;51.488;5.462;2023-07-31T04:52:20;14.63;;;6.10;;
75429;SDS011;64127;51.488;5.462;2023-07-31T04:54:52;10.10;;;5.70;;
75429;SDS011;64127;51.488;5.462;2023-07-31T04:57:24;10.90;;;5.70;;
75429;SDS011;64127;51.488;5.462;2023-07-31T04:59:56;12.47;;;5.80;;
75429;SDS011;64127;51.488;5.462;2023-07-31T05:02:28;11.00;;;5.67;;
75429;SDS011;64127;51.488;5.462;2023-07-31T05:05:00;13.67;;;5.97;;
75429;SDS011;64127;51.488;5.462;2023-07-31T05:07:32;9.23;;;6.00;;
75429;SDS011;64127;51.488;5.462;2023-07-31T05:10:05;11.40;;;6.00;;
75429;SDS011;64127;51.488;5.462;2023-07-31T05:12:37;10.50;;;5.70;;
75429;SDS011;64127;51.488;5.462;2023-07-31T05:15:09;11.33;;;5.47;;
75429;SDS011;64127;51.488;5.462;2023-07-31T05:17:41;9.57;;;5.47;;
75429;SDS011;64127;51.488;5.462;2023-07-31T05:20:14;14.67;;;5.93;;
75429;SDS011;64127;51.488;5.462;2023-07-31T05:22:46;9.43;;;5.20;;
75429;SDS011;64127;51.488;5.462;2023-07-31T05:25:18;9.07;;;5.30;;
75429;SDS011;64127;51.488;5.462;2023-07-31T05:27:50;7.43;;;5.10;;
75429;SDS011;64127;51.488;5.462;2023-07-31T05:30:22;12.07;;;5.30;;
75429;SDS011;64127;51.488;5.462;2023-07-31T05:32:54;7.53;;;5.10;;
75429;SDS011;64127;51.488;5.462;2023-07-31T05:35:26;9.53;;;5.03;;
75429;SDS011;64127;51.488;5.462;2023-07-31T05:37:58;8.63;;;5.27;;
75429;SDS011;64127;51.488;5.462;2023-07-31T05:40:32;8.80;;;4.80;;
75429;SDS011;64127;51.488;5.462;2023-07-31T05:43:04;8.00;;;5.03;;
75429;SDS011;64127;51.488;5.462;2023-07-31T05:45:39;6.90;;;5.00;;
75429;SDS011;64127;51.488;5.462;2023-07-31T05:48:11;9.23;;;5.50;;
75429;SDS011;64127;51.488;5.462;2023-07-31T05:50:43;6.10;;;4.30;;
75429;SDS011;64127;51.488;5.462;2023-07-31T05:53:16;6.80;;;4.27;;
75429;SDS011;64127;51.488;5.462;2023-07-31T05:55:48;6.77;;;4.07;;
75429;SDS011;64127;51.488;5.462;2023-07-31T05:58:19;4.43;;;3.97;;
75429;SDS011;64127;51.488;5.462;2023-07-31T06:00:51;5.93;;;4.30;;
75429;SDS011;64127;51.488;5.462;2023-07-31T06:03:23;9.17;;;4.57;;
75429;SDS011;64127;51.488;5.462;2023-07-31T06:05:56;6.03;;;4.07;;
75429;SDS011;64127;51.488;5.462;2023-07-31T06:08:27;4.57;;;3.87;;
75429;SDS011;64127;51.488;5.462;2023-07-31T06:10:59;4.67;;;3.50;;
75429;SDS011;64127;51.488;5.462;2023-07-31T06:13:31;4.97;;;3.80;;
75429;SDS011;64127;51.488;5.462;2023-07-31T06:16:03;3.80;;;3.40;;
75429;SDS011;64127;51.488;5.462;2023-07-31T06:18:37;5.00;;;3.53;;
75429;SDS011;64127;51.488;5.462;2023-07-31T06:21:09;4.27;;;3.87;;
75429;SDS011;64127;51.488;5.462;2023-07-31T06:23:42;6.83;;;3.60;;
75429;SDS011;64127;51.488;5.462;2023-07-31T06:26:14;4.43;;;3.50;;
75429;SDS011;64127;51.488;5.462;2023-07-31T06:28:46;4.10;;;3.70;;
75429;SDS011;64127;51.488;5.462;2023-07-31T06:31:18;5.67;;;4.10;;
75429;SDS011;64127;51.488;5.462;2023-07-31T06:33:54;4.27;;;3.87;;
75429;SDS011;64127;51.488;5.462;2023-07-31T06:36:26;4.40;;;3.67;;
75429;SDS011;64127;51.488;5.462;2023-07-31T06:38:58;4.90;;;4.00;;
75429;SDS011;64127;51.488;5.462;2023-07-31T06:41:30;4.50;;;3.87;;
75429;SDS011;64127;51.488;5.462;2023-07-31T06:44:02;4.73;;;3.97;;
75429;SDS011;64127;51.488;5.462;2023-07-31T06:46:34;4.47;;;4.07;;
75429;SDS011;64127;51.488;5.462;2023-07-31T06:49:06;5.90;;;4.00;;
75429;SDS011;64127;51.488;5.462;2023-07-31T06:51:38;4.00;;;3.10;;
75429;SDS011;64127;51.488;5.462;2023-07-31T06:54:10;4.10;;;3.70;;
75429;SDS011;64127;51.488;5.462;2023-07-31T06:56:42;4.27;;;3.80;;
75429;SDS011;64127;51.488;5.462;2023-07-31T06:59:15;5.03;;;4.23;;
75429;SDS011;64127;51.488;5.462;2023-07-31T07:01:47;5.23;;;3.90;;
75429;SDS011;64127;51.488;5.462;2023-07-31T07:04:19;5.07;;;3.83;;
75429;SDS011;64127;51.488;5.462;2023-07-31T07:06:51;4.23;;;3.80;;
75429;SDS011;64127;51.488;5.462;2023-07-31T07:09:23;4.67;;;3.77;;
75429;SDS011;64127;51.488;5.462;2023-07-31T07:11:55;4.20;;;3.80;;
75429;SDS011;64127;51.488;5.462;2023-07-31T07:14:27;4.23;;;3.83;;
75429;SDS011;64127;51.488;5.462;2023-07-31T07:16:59;4.20;;;3.70;;
75429;SDS011;64127;51.488;5.462;2023-07-31T07:19:31;3.83;;;3.40;;
75429;SDS011;64127;51.488;5.462;2023-07-31T07:22:03;3.87;;;3.40;;
75429;SDS011;64127;51.488;5.462;2023-07-31T07:24:36;4.97;;;3.30;;
75429;SDS011;64127;51.488;5.462;2023-07-31T07:27:08;5.83;;;3.83;;
75429;SDS011;64127;51.488;5.462;2023-07-31T07:29:40;3.60;;;3.30;;
75429;SDS011;64127;51.488;5.462;2023-07-31T07:32:12;7.03;;;3.77;;
75429;SDS011;64127;51.488;5.462;2023-07-31T07:34:44;5.93;;;3.87;;
75429;SDS011;64127;51.488;5.462;2023-07-31T07:37:18;3.40;;;3.10;;
75429;SDS011;64127;51.488;5.462;2023-07-31T07:39:50;4.50;;;3.50;;
75429;SDS011;64127;51.488;5.462;2023-07-31T07:42:22;5.47;;;4.00;;
75429;SDS011;64127;51.488;5.462;2023-07-31T07:44:54;4.70;;;4.20;;
75429;SDS011;64127;51.488;5.462;2023-07-31T07:47:26;5.17;;;4.00;;
75429;SDS011;64127;51.488;5.462;2023-07-31T07:49:59;5.33;;;4.60;;
75429;SDS011;64127;51.488;5.462;2023-07-31T07:52:31;5.57;;;4.27;;
75429;SDS011;64127;51.488;5.462;2023-07-31T07:55:03;6.30;;;4.63;;
75429;SDS011;64127;51.488;5.462;2023-07-31T07:57:36;5.33;;;4.40;;
75429;SDS011;64127;51.488;5.462;2023-07-31T08:00:08;7.60;;;4.57;;
75429;SDS011;64127;51.488;5.462;2023-07-31T08:02:41;6.10;;;4.30;;
75429;SDS011;64127;51.488;5.462;2023-07-31T08:05:14;5.47;;;4.70;;
75429;SDS011;64127;51.488;5.462;2023-07-31T08:07:46;6.50;;;4.90;;
75429;SDS011;64127;51.488;5.462;2023-07-31T08:10:18;6.30;;;4.90;;
75429;SDS011;64127;51.488;5.462;2023-07-31T08:12:50;6.13;;;5.10;;
75429;SDS011;64127;51.488;5.462;2023-07-31T08:15:22;6.47;;;5.10;;
75429;SDS011;64127;51.488;5.462;2023-07-31T08:17:54;6.17;;;5.27;;
75429;SDS011;64127;51.488;5.462;2023-07-31T08:20:26;6.83;;;4.77;;
75429;SDS011;64127;51.488;5.462;2023-07-31T08:22:58;5.53;;;4.97;;
75429;SDS011;64127;51.488;5.462;2023-07-31T08:25:30;6.60;;;4.90;;
75429;SDS011;64127;51.488;5.462;2023-07-31T08:28:10;5.43;;;4.47;;
75429;SDS011;64127;51.488;5.462;2023-07-31T08:30:42;11.60;;;5.23;;
75429;SDS011;64127;51.488;5.462;2023-07-31T08:33:14;6.57;;;4.90;;
75429;SDS011;64127;51.488;5.462;2023-07-31T08:35:46;6.83;;;4.87;;
75429;SDS011;64127;51.488;5.462;2023-07-31T08:38:19;6.97;;;5.17;;
75429;SDS011;64127;51.488;5.462;2023-07-31T08:40:52;6.20;;;4.80;;
75429;SDS011;64127;51.488;5.462;2023-07-31T08:43:26;5.30;;;4.70;;
75429;SDS011;64127;51.488;5.462;2023-07-31T08:45:59;6.00;;;4.40;;
75429;SDS011;64127;51.488;5.462;2023-07-31T08:48:32;9.03;;;5.20;;
75429;SDS011;64127;51.488;5.462;2023-07-31T08:51:04;7.50;;;5.40;;
75429;SDS011;64127;51.488;5.462;2023-07-31T08:53:37;5.73;;;4.40;;
75429;SDS011;64127;51.488;5.462;2023-07-31T08:56:10;8.77;;;5.10;;
75429;SDS011;64127;51.488;5.462;2023-07-31T08:58:46;7.83;;;5.10;;
75429;SDS011;64127;51.488;5.462;2023-07-31T09:01:20;5.37;;;4.80;;
75429;SDS011;64127;51.488;5.462;2023-07-31T09:03:53;7.47;;;5.40;;
75429;SDS011;64127;51.488;5.462;2023-07-31T09:06:28;6.50;;;5.40;;
75429;SDS011;64127;51.488;5.462;2023-07-31T09:09:02;6.27;;;4.90;;
75429;SDS011;64127;51.488;5.462;2023-07-31T09:11:34;7.13;;;5.23;;
75429;SDS011;64127;51.488;5.462;2023-07-31T09:14:07;6.73;;;5.20;;
75429;SDS011;64127;51.488;5.462;2023-07-31T09:16:51;9.13;;;5.50;;
75429;SDS011;64127;51.488;5.462;2023-07-31T09:19:29;8.90;;;5.47;;
75429;SDS011;64127;51.488;5.462;2023-07-31T09:22:08;7.97;;;5.30;;
75429;SDS011;64127;51.488;5.462;2023-07-31T09:24:40;7.00;;;4.97;;
75429;SDS011;64127;51.488;5.462;2023-07-31T09:27:12;9.17;;;5.23;;
75429;SDS011;64127;51.488;5.462;2023-07-31T09:29:44;7.17;;;5.00;;
75429;SDS011;64127;51.488;5.462;2023-07-31T09:32:16;8.70;;;5.47;;
75429;SDS011;64127;51.488;5.462;2023-07-31T09:34:49;6.07;;;5.30;;
75429;SDS011;64127;51.488;5.462;2023-07-31T09:37:21;6.53;;;4.90;;
75429;SDS011;64127;51.488;5.462;2023-07-31T09:39:53;8.10;;;5.00;;
75429;SDS011;64127;51.488;5.462;2023-07-31T09:42:29;6.20;;;5.10;;
75429;SDS011;64127;51.488;5.462;2023-07-31T09:45:07;6.57;;;5.10;;
75429;SDS011;64127;51.488;5.462;2023-07-31T09:47:45;7.57;;;4.90;;
75429;SDS011;64127;51.488;5.462;2023-07-31T09:50:20;7.00;;;4.80;;
75429;SDS011;64127;51.488;5.462;2023-07-31T09:52:54;6.67;;;4.50;;
75429;SDS011;64127;51.488;5.462;2023-07-31T09:55:26;7.97;;;5.27;;
75429;SDS011;64127;51.488;5.462;2023-07-31T09:58:05;6.63;;;4.70;;
75429;SDS011;64127;51.488;5.462;2023-07-31T10:00:40;8.10;;;4.80;;
75429;SDS011;64127;51.488;5.462;2023-07-31T10:03:12;6.27;;;4.30;;
75429;SDS011;64127;51.488;5.462;2023-07-31T10:05:50;7.83;;;4.87;;
75429;SDS011;64127;51.488;5.462;2023-07-31T10:08:27;6.27;;;4.77;;
75429;SDS011;64127;51.488;5.462;2023-07-31T10:11:02;7.07;;;4.97;;
75429;SDS011;64127;51.488;5.462;2023-07-31T10:13:35;5.80;;;4.27;;
75429;SDS011;64127;51.488;5.462;2023-07-31T10:16:08;7.83;;;4.40;;
75429;SDS011;64127;51.488;5.462;2023-07-31T10:18:41;6.53;;;4.53;;
75429;SDS011;64127;51.488;5.462;2023-07-31T10:21:15;6.30;;;4.33;;
75429;SDS011;64127;51.488;5.462;2023-07-31T10:23:48;7.77;;;4.80;;
75429;SDS011;64127;51.488;5.462;2023-07-31T10:26:21;5.77;;;4.63;;
75429;SDS011;64127;51.488;5.462;2023-07-31T10:28:56;5.83;;;4.50;;
75429;SDS011;64127;51.488;5.462;2023-07-31T10:31:30;4.67;;;3.97;;
75429;SDS011;64127;51.488;5.462;2023-07-31T10:34:03;7.07;;;4.07;;
75429;SDS011;64127;51.488;5.462;2023-07-31T10:36:36;4.10;;;3.63;;
75429;SDS011;64127;51.488;5.462;2023-07-31T10:42:12;5.57;;;4.10;;
75429;SDS011;64127;51.488;5.462;2023-07-31T10:44:46;4.40;;;3.60;;
75429;SDS011;64127;51.488;5.462;2023-07-31T10:47:18;6.27;;;4.03;;
75429;SDS011;64127;51.488;5.462;2023-07-31T10:49:50;6.27;;;4.13;;
75429;SDS011;64127;51.488;5.462;2023-07-31T10:52:22;5.13;;;4.00;;
75429;SDS011;64127;51.488;5.462;2023-07-31T10:55:23;6.77;;;4.27;;
75429;SDS011;64127;51.488;5.462;2023-07-31T11:00:42;4.27;;;3.73;;
75429;SDS011;64127;51.488;5.462;2023-07-31T11:03:16;4.33;;;3.93;;
75429;SDS011;64127;51.488;5.462;2023-07-31T11:06:00;5.20;;;4.10;;
75429;SDS011;64127;51.488;5.462;2023-07-31T11:08:41;5.00;;;3.87;;
75429;SDS011;64127;51.488;5.462;2023-07-31T11:11:17;6.73;;;4.20;;
75429;SDS011;64127;51.488;5.462;2023-07-31T11:13:51;4.97;;;3.67;;
75429;SDS011;64127;51.488;5.462;2023-07-31T11:16:25;6.27;;;4.27;;
75429;SDS011;64127;51.488;5.462;2023-07-31T11:18:57;5.27;;;4.03;;
75429;SDS011;64127;51.488;5.462;2023-07-31T11:21:29;7.10;;;4.00;;
75429;SDS011;64127;51.488;5.462;2023-07-31T11:24:01;4.97;;;4.47;;
75429;SDS011;64127;51.488;5.462;2023-07-31T11:26:33;6.77;;;4.40;;
75429;SDS011;64127;51.488;5.462;2023-07-31T11:29:10;8.03;;;4.70;;
75429;SDS011;64127;51.488;5.462;2023-07-31T11:31:44;5.00;;;3.80;;
75429;SDS011;64127;51.488;5.462;2023-07-31T11:34:18;6.30;;;3.97;;
75429;SDS011;64127;51.488;5.462;2023-07-31T11:36:52;4.30;;;3.83;;
75429;SDS011;64127;51.488;5.462;2023-07-31T11:39:28;7.37;;;4.40;;
75429;SDS011;64127;51.488;5.462;2023-07-31T11:42:01;5.97;;;4.23;;
75429;SDS011;64127;51.488;5.462;2023-07-31T11:44:37;5.93;;;3.60;;
75429;SDS011;64127;51.488;5.462;2023-07-31T11:47:12;5.80;;;4.40;;
75429;SDS011;64127;51.488;5.462;2023-07-31T11:49:44;6.00;;;3.83;;
75429;SDS011;64127;51.488;5.462;2023-07-31T11:52:16;6.67;;;3.60;;
75429;SDS011;64127;51.488;5.462;2023-07-31T11:54:51;4.83;;;3.80;;
75429;SDS011;64127;51.488;5.462;2023-07-31T11:57:23;5.73;;;3.87;;
75429;SDS011;64127;51.488;5.462;2023-07-31T11:59:56;4.83;;;3.83;;
75429;SDS011;64127;51.488;5.462;2023-07-31T12:02:29;5.83;;;3.70;;
75429;SDS011;64127;51.488;5.462;2023-07-31T12:05:01;7.17;;;4.30;;
75429;SDS011;64127;51.488;5.462;2023-07-31T12:07:50;4.83;;;4.10;;
75429;SDS011;64127;51.488;5.462;2023-07-31T12:13:11;4.67;;;3.83;;
75429;SDS011;64127;51.488;5.462;2023-07-31T12:15:58;5.67;;;3.70;;
75429;SDS011;64127;51.488;5.462;2023-07-31T12:18:34;5.77;;;3.90;;
75429;SDS011;64127;51.488;5.462;2023-07-31T12:21:09;5.13;;;3.87;;
75429;SDS011;64127;51.488;5.462;2023-07-31T12:23:43;4.87;;;3.87;;
75429;SDS011;64127;51.488;5.462;2023-07-31T12:26:16;5.57;;;4.05;;
75429;SDS011;64127;51.488;5.462;2023-07-31T12:28:49;4.53;;;4.10;;
75429;SDS011;64127;51.488;5.462;2023-07-31T12:31:22;4.40;;;3.70;;
75429;SDS011;64127;51.488;5.462;2023-07-31T12:33:55;5.83;;;4.20;;
75429;SDS011;64127;51.488;5.462;2023-07-31T12:36:27;5.23;;;3.87;;
75429;SDS011;64127;51.488;5.462;2023-07-31T12:39:01;6.47;;;4.00;;
75429;SDS011;64127;51.488;5.462;2023-07-31T12:41:34;4.50;;;4.10;;
75429;SDS011;64127;51.488;5.462;2023-07-31T12:44:06;5.03;;;4.07;;
75429;SDS011;64127;51.488;5.462;2023-07-31T12:46:38;4.90;;;4.20;;
75429;SDS011;64127;51.488;5.462;2023-07-31T12:49:11;4.93;;;4.10;;
75429;SDS011;64127;51.488;5.462;2023-07-31T12:51:43;6.40;;;4.90;;
75429;SDS011;64127;51.488;5.462;2023-07-31T12:54:15;6.77;;;5.00;;
75429;SDS011;64127;51.488;5.462;2023-07-31T12:56:47;5.60;;;4.50;;
75429;SDS011;64127;51.488;5.462;2023-07-31T12:59:19;5.83;;;4.77;;
75429;SDS011;64127;51.488;5.462;2023-07-31T13:01:51;6.20;;;4.60;;
75429;SDS011;64127;51.488;5.462;2023-07-31T13:04:23;6.87;;;4.70;;
75429;SDS011;64127;51.488;5.462;2023-07-31T13:06:55;7.40;;;4.57;;
75429;SDS011;64127;51.488;5.462;2023-07-31T13:09:27;9.00;;;4.97;;
75429;SDS011;64127;51.488;5.462;2023-07-31T13:11:59;6.90;;;4.87;;
75429;SDS011;64127;51.488;5.462;2023-07-31T13:14:31;6.30;;;5.00;;
75429;SDS011;64127;51.488;5.462;2023-07-31T13:17:03;7.00;;;4.80;;
75429;SDS011;64127;51.488;5.462;2023-07-31T13:19:35;7.03;;;4.60;;
75429;SDS011;64127;51.488;5.462;2023-07-31T13:22:07;6.23;;;4.77;;
75429;SDS011;64127;51.488;5.462;2023-07-31T13:24:39;8.00;;;4.90;;
75429;SDS011;64127;51.488;5.462;2023-07-31T13:27:12;6.37;;;5.33;;
75429;SDS011;64127;51.488;5.462;2023-07-31T13:29:48;9.30;;;4.90;;
75429;SDS011;64127;51.488;5.462;2023-07-31T13:32:20;7.73;;;4.83;;
75429;SDS011;64127;51.488;5.462;2023-07-31T13:34:53;5.90;;;5.13;;
75429;SDS011;64127;51.488;5.462;2023-07-31T13:37:25;9.60;;;5.07;;
75429;SDS011;64127;51.488;5.462;2023-07-31T13:39:57;7.90;;;4.87;;
75429;SDS011;64127;51.488;5.462;2023-07-31T13:42:29;5.87;;;4.87;;
75429;SDS011;64127;51.488;5.462;2023-07-31T13:45:01;6.00;;;4.80;;
75429;SDS011;64127;51.488;5.462;2023-07-31T13:47:37;7.53;;;5.30;;
75429;SDS011;64127;51.488;5.462;2023-07-31T13:50:09;6.90;;;5.43;;
75429;SDS011;64127;51.488;5.462;2023-07-31T13:52:41;6.00;;;4.90;;
75429;SDS011;64127;51.488;5.462;2023-07-31T13:55:13;8.73;;;5.30;;
75429;SDS011;64127;51.488;5.462;2023-07-31T13:57:45;8.73;;;5.90;;
75429;SDS011;64127;51.488;5.462;2023-07-31T14:00:18;9.03;;;5.53;;
75429;SDS011;64127;51.488;5.462;2023-07-31T14:02:50;8.20;;;5.70;;
75429;SDS011;64127;51.488;5.462;2023-07-31T14:05:22;9.23;;;6.07;;
75429;SDS011;64127;51.488;5.462;2023-07-31T14:07:54;7.67;;;6.07;;
75429;SDS011;64127;51.488;5.462;2023-07-31T14:10:26;10.03;;;6.43;;
75429;SDS011;64127;51.488;5.462;2023-07-31T14:12:58;9.10;;;6.13;;
75429;SDS011;64127;51.488;5.462;2023-07-31T14:15:30;7.83;;;5.93;;
75429;SDS011;64127;51.488;5.462;2023-07-31T14:18:03;8.23;;;6.03;;
75429;SDS011;64127;51.488;5.462;2023-07-31T14:20:36;8.57;;;5.90;;
75429;SDS011;64127;51.488;5.462;2023-07-31T14:23:08;9.30;;;5.83;;
75429;SDS011;64127;51.488;5.462;2023-07-31T14:25:40;8.00;;;5.20;;
75429;SDS011;64127;51.488;5.462;2023-07-31T14:28:12;8.73;;;5.33;;
75429;SDS011;64127;51.488;5.462;2023-07-31T14:30:44;13.73;;;6.40;;
75429;SDS011;64127;51.488;5.462;2023-07-31T14:33:16;8.07;;;5.80;;
75429;SDS011;64127;51.488;5.462;2023-07-31T14:35:48;9.33;;;5.97;;
75429;SDS011;64127;51.488;5.462;2023-07-31T14:38:20;9.20;;;5.57;;
75429;SDS011;64127;51.488;5.462;2023-07-31T14:40:52;8.73;;;5.70;;
75429;SDS011;64127;51.488;5.462;2023-07-31T14:43:24;8.77;;;5.70;;
75429;SDS011;64127;51.488;5.462;2023-07-31T14:45:57;9.10;;;6.30;;
75429;SDS011;64127;51.488;5.462;2023-07-31T14:48:31;7.17;;;5.70;;
75429;SDS011;64127;51.488;5.462;2023-07-31T14:51:03;7.90;;;5.43;;
75429;SDS011;64127;51.488;5.462;2023-07-31T14:53:35;7.57;;;5.60;;
75429;SDS011;64127;51.488;5.462;2023-07-31T14:56:07;8.10;;;5.33;;
75429;SDS011;64127;51.488;5.462;2023-07-31T14:58:39;7.30;;;4.43;;
75429;SDS011;64127;51.488;5.462;2023-07-31T15:01:11;6.80;;;4.20;;
75429;SDS011;64127;51.488;5.462;2023-07-31T15:03:43;6.57;;;4.10;;
75429;SDS011;64127;51.488;5.462;2023-07-31T15:06:15;5.20;;;3.87;;
75429;SDS011;64127;51.488;5.462;2023-07-31T15:08:47;5.33;;;3.33;;
75429;SDS011;64127;51.488;5.462;2023-07-31T15:11:19;4.23;;;3.30;;
75429;SDS011;64127;51.488;5.462;2023-07-31T15:13:51;5.27;;;3.77;;
75429;SDS011;64127;51.488;5.462;2023-07-31T15:16:23;6.80;;;3.87;;
75429;SDS011;64127;51.488;5.462;2023-07-31T15:18:55;4.73;;;3.63;;
75429;SDS011;64127;51.488;5.462;2023-07-31T15:21:28;5.33;;;3.67;;
75429;SDS011;64127;51.488;5.462;2023-07-31T15:24:00;5.67;;;3.87;;
75429;SDS011;64127;51.488;5.462;2023-07-31T15:26:32;6.27;;;3.43;;
75429;SDS011;64127;51.488;5.462;2023-07-31T15:29:05;3.83;;;3.17;;
75429;SDS011;64127;51.488;5.462;2023-07-31T15:31:42;4.47;;;3.53;;
75429;SDS011;64127;51.488;5.462;2023-07-31T15:34:15;3.63;;;2.97;;
75429;SDS011;64127;51.488;5.462;2023-07-31T15:36:48;4.00;;;3.20;;
75429;SDS011;64127;51.488;5.462;2023-07-31T15:39:20;4.47;;;3.07;;
75429;SDS011;64127;51.488;5.462;2023-07-31T15:41:52;5.57;;;3.07;;